createdAt,value
2018-07-13T00:00:11.866Z,16.47
2018-07-13T00:02:39.984Z,16.45
2018-07-13T00:05:08.080Z,16.46
2018-07-13T00:07:36.064Z,16.41
2018-07-13T00:10:04.197Z,16.40
2018-07-13T00:12:32.348Z,16.41
2018-07-13T00:15:05.131Z,16.39
2018-07-13T00:17:33.152Z,16.39
2018-07-13T00:20:01.114Z,16.36
2018-07-13T00:22:29.208Z,16.32
2018-07-13T00:24:57.330Z,16.31
2018-07-13T00:27:25.524Z,16.27
2018-07-13T00:29:53.565Z,16.24
2018-07-13T00:32:21.610Z,16.17
2018-07-13T00:34:49.607Z,16.16
2018-07-13T00:37:17.629Z,16.10
2018-07-13T00:39:45.663Z,16.10
2018-07-13T00:42:13.620Z,16.08
2018-07-13T00:44:41.761Z,16.10
2018-07-13T00:47:09.812Z,16.05
2018-07-13T00:49:38.040Z,16.03
2018-07-13T00:52:06.025Z,16.00
2018-07-13T00:54:34.072Z,15.95
2018-07-13T00:57:02.166Z,15.95
2018-07-13T00:59:30.230Z,15.93
2018-07-13T01:01:58.331Z,15.92
2018-07-13T01:04:26.350Z,15.89
2018-07-13T01:06:54.380Z,15.84
2018-07-13T01:09:22.358Z,15.80
2018-07-13T01:11:50.310Z,15.77
2018-07-13T01:14:19.220Z,15.74
2018-07-13T01:16:47.335Z,15.71
2018-07-13T01:19:15.408Z,15.72
2018-07-13T01:21:43.425Z,15.70
2018-07-13T01:24:11.501Z,15.67
2018-07-13T01:26:39.542Z,15.67
2018-07-13T01:29:07.619Z,15.65
2018-07-13T01:31:35.672Z,15.70
2018-07-13T01:34:03.709Z,15.64
2018-07-13T01:36:31.723Z,15.61
2018-07-13T01:38:59.760Z,15.68
2018-07-13T01:41:27.852Z,15.65
2018-07-13T01:43:56.084Z,15.61
2018-07-13T01:46:24.163Z,15.61
2018-07-13T01:48:52.194Z,15.60
2018-07-13T01:51:20.189Z,15.57
2018-07-13T01:53:48.249Z,15.58
2018-07-13T01:56:16.241Z,15.55
2018-07-13T01:58:44.269Z,15.53
2018-07-13T02:01:12.277Z,15.59
2018-07-13T02:03:40.253Z,15.60
2018-07-13T02:06:08.242Z,15.61
2018-07-13T02:08:36.389Z,15.66
2018-07-13T02:11:04.472Z,15.68
2018-07-13T02:13:32.617Z,15.66
2018-07-13T02:16:00.664Z,15.61
2018-07-13T02:18:28.660Z,15.70
2018-07-13T02:20:56.679Z,15.61
2018-07-13T02:23:24.808Z,15.67
2018-07-13T02:25:52.861Z,15.62
2018-07-13T02:28:20.962Z,15.71
2018-07-13T02:30:48.985Z,15.77
2018-07-13T02:33:16.968Z,15.67
2018-07-13T02:35:44.935Z,15.58
2018-07-13T02:38:12.900Z,15.56
2018-07-13T02:40:40.918Z,15.56
2018-07-13T02:43:08.911Z,15.57
2018-07-13T02:45:37.004Z,15.52
2018-07-13T02:48:04.992Z,15.48
2018-07-13T02:50:33.041Z,15.54
2018-07-13T02:53:01.017Z,15.52
2018-07-13T02:55:29.016Z,15.45
2018-07-13T02:57:57.057Z,15.43
2018-07-13T03:00:25.029Z,15.40
2018-07-13T03:02:53.113Z,15.36
2018-07-13T03:05:21.242Z,15.36
2018-07-13T03:07:49.224Z,15.38
2018-07-13T03:10:17.385Z,15.37
2018-07-13T03:12:45.393Z,15.39
2018-07-13T03:15:13.495Z,15.39
2018-07-13T03:17:41.531Z,15.55
2018-07-13T03:20:09.636Z,15.48
2018-07-13T03:22:37.595Z,15.50
2018-07-13T03:25:05.937Z,15.60
2018-07-13T03:27:33.948Z,16.26
2018-07-13T03:30:02.127Z,16.96
2018-07-13T03:32:30.267Z,17.51
2018-07-13T03:34:58.230Z,18.07
2018-07-13T03:37:26.266Z,18.63
2018-07-13T03:39:54.316Z,19.05
2018-07-13T03:42:22.372Z,19.56
2018-07-13T03:44:50.444Z,20.04
2018-07-13T03:47:18.459Z,20.54
2018-07-13T03:49:46.611Z,20.96
2018-07-13T03:52:14.716Z,21.47
2018-07-13T03:54:42.799Z,21.08
2018-07-13T03:57:10.908Z,21.07
2018-07-13T03:59:39.126Z,21.43
2018-07-13T04:02:07.220Z,21.72
2018-07-13T04:04:35.411Z,21.82
2018-07-13T04:07:03.601Z,21.76
2018-07-13T04:09:31.683Z,21.98
2018-07-13T04:11:59.772Z,22.06
2018-07-13T04:14:27.867Z,22.21
2018-07-13T04:16:55.907Z,22.50
2018-07-13T04:19:23.988Z,22.36
2018-07-13T04:21:52.140Z,22.90
2018-07-13T04:24:20.307Z,22.67
2018-07-13T04:26:48.471Z,22.63
2018-07-13T04:29:16.625Z,22.97
2018-07-13T04:31:44.614Z,23.08
2018-07-13T04:34:12.790Z,23.17
2018-07-13T04:36:40.883Z,22.85
2018-07-13T04:39:10.554Z,22.29
2018-07-13T04:41:38.653Z,22.54
2018-07-13T04:44:07.073Z,22.33
2018-07-13T04:46:35.557Z,22.30
2018-07-13T04:49:04.107Z,22.18
2018-07-13T04:51:32.273Z,22.38
2018-07-13T04:54:00.351Z,22.64
2018-07-13T04:56:28.548Z,22.84
2018-07-13T04:58:56.674Z,23.14
2018-07-13T05:01:24.890Z,23.33
2018-07-13T05:03:53.296Z,23.21
2018-07-13T05:06:21.482Z,23.31
2018-07-13T05:08:49.717Z,23.47
2018-07-13T05:11:18.302Z,24.13
2018-07-13T05:13:46.516Z,24.07
2018-07-13T05:16:15.068Z,23.84
2018-07-13T05:18:43.250Z,23.39
2018-07-13T05:21:12.517Z,23.47
2018-07-13T05:23:41.376Z,23.16
2018-07-13T05:26:09.968Z,22.98
2018-07-13T05:28:38.412Z,23.27
2018-07-13T05:31:06.602Z,23.32
2018-07-13T05:33:34.860Z,23.77
2018-07-13T05:36:03.110Z,23.52
2018-07-13T05:38:31.441Z,23.59
2018-07-13T05:40:59.976Z,23.89
2018-07-13T05:43:36.584Z,24.08
2018-07-13T05:46:05.207Z,24.34
2018-07-13T05:48:34.150Z,24.01
2018-07-13T05:51:02.603Z,23.88
2018-07-13T05:53:31.004Z,24.59
2018-07-13T05:55:59.721Z,24.46
2018-07-13T05:58:28.539Z,25.01
2018-07-13T06:00:56.939Z,25.28
2018-07-13T06:03:25.512Z,25.37
2018-07-13T06:05:53.828Z,25.43
2018-07-13T06:08:21.957Z,25.77
2018-07-13T06:10:50.545Z,25.69
2018-07-13T06:13:18.933Z,25.69
2018-07-13T06:15:47.646Z,25.87
2018-07-13T06:18:16.020Z,26.33
2018-07-13T06:20:44.448Z,26.47
2018-07-13T06:23:13.136Z,26.74
2018-07-13T06:25:41.335Z,26.47
2018-07-13T06:28:09.453Z,26.53
2018-07-13T06:30:37.761Z,26.48
2018-07-13T06:33:07.038Z,26.09
2018-07-13T06:35:35.227Z,25.68
2018-07-13T06:38:03.432Z,26.38
2018-07-13T06:40:32.528Z,26.96
2018-07-13T06:43:00.819Z,27.24
2018-07-13T06:45:29.437Z,26.44
2018-07-13T06:47:57.794Z,27.17
2018-07-13T06:50:26.166Z,26.73
2018-07-13T06:52:54.443Z,27.07
2018-07-13T06:55:22.700Z,27.35
2018-07-13T06:58:01.954Z,27.74
2018-07-13T07:01:08.380Z,27.39
2018-07-13T07:04:40.778Z,27.74
2018-07-13T07:07:16.949Z,27.15
2018-07-13T07:09:48.071Z,26.78
2018-07-13T07:13:34.547Z,27.32
2018-07-13T07:16:02.996Z,27.70
2018-07-13T07:18:31.246Z,27.94
2018-07-13T07:20:59.552Z,27.51
2018-07-13T07:23:28.924Z,27.81
2018-07-13T07:25:59.220Z,27.22
2018-07-13T07:28:27.396Z,27.06
2018-07-13T07:30:56.700Z,26.94
2018-07-13T07:33:25.803Z,26.65
2018-07-13T07:35:54.105Z,26.63
2018-07-13T07:38:22.442Z,27.57
2018-07-13T07:40:50.808Z,27.05
2018-07-13T07:43:19.905Z,27.26
2018-07-13T07:45:48.008Z,28.09
2018-07-13T07:48:16.439Z,27.91
2018-07-13T07:50:44.512Z,27.84
2018-07-13T07:53:12.548Z,27.50
2018-07-13T07:55:40.857Z,27.65
2018-07-13T07:58:09.081Z,28.15
2018-07-13T08:00:37.237Z,28.43
2018-07-13T08:03:05.920Z,28.27
2018-07-13T08:05:34.414Z,28.35
2018-07-13T08:08:02.511Z,28.46
2018-07-13T08:10:30.587Z,28.69
2018-07-13T08:12:58.931Z,28.42
2018-07-13T08:15:27.183Z,28.43
2018-07-13T08:17:55.423Z,28.73
2018-07-13T08:20:26.389Z,29.24
2018-07-13T08:22:56.242Z,28.35
2018-07-13T08:25:25.667Z,28.42
2018-07-13T08:27:57.188Z,28.56
2018-07-13T08:30:31.560Z,28.87
2018-07-13T08:32:59.809Z,28.14
2018-07-13T08:35:27.953Z,28.15
2018-07-13T08:37:56.087Z,28.70
2018-07-13T08:40:24.537Z,28.92
2018-07-13T08:42:52.977Z,28.94
2018-07-13T08:45:21.038Z,29.30
2018-07-13T08:47:49.292Z,28.62
2018-07-13T08:50:17.552Z,28.37
2018-07-13T08:52:45.728Z,28.24
2018-07-13T08:55:15.488Z,28.47
2018-07-13T08:57:48.383Z,29.01
2018-07-13T09:00:16.953Z,28.91
2018-07-13T09:02:45.344Z,29.01
2018-07-13T09:05:13.931Z,28.78
2018-07-13T09:07:42.374Z,29.58
2018-07-13T09:10:12.150Z,29.54
2018-07-13T09:12:40.471Z,29.85
2018-07-13T09:15:09.753Z,29.61
2018-07-13T09:17:38.184Z,29.69
2018-07-13T09:20:08.157Z,29.49
2018-07-13T09:22:36.482Z,29.94
2018-07-13T09:25:05.135Z,30.55
2018-07-13T09:27:33.411Z,30.43
2018-07-13T09:30:01.780Z,29.66
2018-07-13T09:32:30.019Z,29.49
2018-07-13T09:34:58.135Z,30.03
2018-07-13T09:37:26.709Z,30.31
2018-07-13T09:39:54.997Z,29.88
2018-07-13T09:42:23.486Z,30.28
2018-07-13T09:44:51.811Z,30.88
2018-07-13T09:47:20.077Z,30.34
2018-07-13T09:49:48.279Z,29.48
2018-07-13T09:52:16.900Z,28.76
2018-07-13T09:54:45.440Z,29.46
2018-07-13T09:57:14.163Z,29.64
2018-07-13T09:59:42.721Z,29.72
2018-07-13T10:02:11.503Z,29.19
2018-07-13T10:04:40.575Z,29.46
2018-07-13T10:07:09.312Z,30.23
2018-07-13T10:09:37.561Z,30.39
2018-07-13T10:12:06.311Z,30.38
2018-07-13T10:14:35.155Z,30.70
2018-07-13T10:17:03.644Z,29.25
2018-07-13T10:19:32.111Z,28.41
2018-07-13T10:22:00.595Z,28.00
2018-07-13T10:24:29.183Z,27.78
2018-07-13T10:26:57.680Z,27.81
2018-07-13T10:29:29.360Z,27.59
2018-07-13T10:31:57.909Z,27.57
2018-07-13T10:34:26.301Z,27.32
2018-07-13T10:36:58.291Z,26.96
2018-07-13T10:39:26.370Z,26.92
2018-07-13T10:41:54.719Z,26.53
2018-07-13T10:44:23.161Z,26.37
2018-07-13T10:46:52.164Z,26.37
2018-07-13T10:49:20.478Z,25.94
2018-07-13T10:51:49.335Z,25.42
2018-07-13T10:54:17.730Z,25.12
2018-07-13T10:56:46.299Z,24.75
2018-07-13T10:59:14.807Z,24.49
2018-07-13T11:01:43.080Z,24.11
2018-07-13T11:04:12.618Z,23.86
2018-07-13T11:06:40.746Z,22.64
2018-07-13T11:09:09.896Z,22.06
2018-07-13T11:11:38.155Z,21.93
2018-07-13T11:14:06.759Z,21.69
2018-07-13T11:16:35.283Z,21.61
2018-07-13T11:19:03.392Z,21.60
2018-07-13T11:21:31.658Z,21.81
2018-07-13T11:23:59.920Z,21.77
2018-07-13T11:26:28.173Z,21.84
2018-07-13T11:28:56.397Z,21.95
2018-07-13T11:31:24.497Z,22.00
2018-07-13T11:33:52.785Z,22.27
2018-07-13T11:36:21.065Z,22.63
2018-07-13T11:38:49.170Z,22.55
2018-07-13T11:41:17.652Z,22.84
2018-07-13T11:43:45.927Z,23.02
2018-07-13T11:46:14.458Z,23.34
2018-07-13T11:48:42.615Z,23.52
2018-07-13T11:51:11.122Z,23.84
2018-07-13T11:53:39.459Z,24.22
2018-07-13T11:56:07.684Z,24.34
2018-07-13T11:58:36.107Z,24.30
2018-07-13T12:01:04.670Z,24.57
2018-07-13T12:03:32.829Z,25.10
2018-07-13T12:06:01.406Z,25.50
2018-07-13T12:08:29.541Z,25.91
2018-07-13T12:10:57.666Z,26.29
2018-07-13T12:13:26.008Z,26.76
2018-07-13T12:15:54.441Z,27.23
2018-07-13T12:18:22.763Z,27.26
2018-07-13T12:20:50.951Z,27.32
2018-07-13T12:23:19.077Z,27.29
2018-07-13T12:25:47.585Z,27.56
2018-07-13T12:28:16.187Z,27.73
2018-07-13T12:30:44.431Z,27.66
2018-07-13T12:33:12.936Z,27.96
2018-07-13T12:35:41.482Z,27.48
2018-07-13T12:38:09.937Z,27.77
2018-07-13T12:40:38.123Z,27.99
2018-07-13T12:43:06.447Z,27.58
2018-07-13T12:45:34.793Z,27.69
2018-07-13T12:48:03.162Z,27.63
2018-07-13T12:50:31.573Z,27.29
2018-07-13T12:52:59.746Z,26.90
2018-07-13T12:55:27.972Z,26.50
2018-07-13T12:57:56.445Z,25.75
2018-07-13T13:00:24.823Z,25.39
2018-07-13T13:02:53.022Z,25.35
2018-07-13T13:05:21.416Z,25.24
2018-07-13T13:07:49.689Z,24.79
2018-07-13T13:10:17.998Z,24.57
2018-07-13T13:12:46.450Z,24.61
2018-07-13T13:15:14.750Z,24.70
2018-07-13T13:17:42.962Z,24.32
2018-07-13T13:20:11.372Z,24.48
2018-07-13T13:22:39.666Z,24.58
2018-07-13T13:25:07.836Z,24.75
2018-07-13T13:27:36.118Z,24.77
2018-07-13T13:30:04.463Z,24.77
2018-07-13T13:32:32.789Z,24.83
2018-07-13T13:35:02.598Z,24.80
2018-07-13T13:37:31.236Z,24.82
2018-07-13T13:39:59.724Z,25.17
2018-07-13T13:42:27.840Z,25.47
2018-07-13T13:44:56.042Z,25.66
2018-07-13T13:47:24.248Z,25.79
2018-07-13T13:49:52.429Z,25.81
2018-07-13T13:52:20.531Z,26.09
2018-07-13T13:54:48.771Z,26.29
2018-07-13T13:57:17.025Z,25.88
2018-07-13T13:59:45.096Z,26.15
2018-07-13T14:02:13.320Z,26.24
2018-07-13T14:04:41.514Z,25.68
2018-07-13T14:07:09.616Z,25.41
2018-07-13T14:09:37.747Z,25.16
2018-07-13T14:12:05.992Z,24.95
2018-07-13T14:14:34.398Z,24.68
2018-07-13T14:17:02.712Z,24.28
2018-07-13T14:19:31.096Z,23.83
2018-07-13T14:21:59.236Z,23.67
2018-07-13T14:24:27.535Z,23.45
2018-07-13T14:26:55.820Z,23.06
2018-07-13T14:29:24.112Z,22.71
2018-07-13T14:31:52.273Z,22.63
2018-07-13T14:34:20.591Z,22.65
2018-07-13T14:36:48.803Z,22.48
2018-07-13T14:39:17.398Z,22.54
2018-07-13T14:41:46.342Z,22.49
2018-07-13T14:44:14.804Z,22.57
2018-07-13T14:46:43.172Z,22.89
2018-07-13T14:49:11.825Z,23.18
2018-07-13T14:51:40.077Z,23.26
2018-07-13T14:54:08.282Z,23.26
2018-07-13T14:56:36.514Z,23.47
2018-07-13T14:59:04.828Z,23.89
2018-07-13T15:01:33.161Z,24.10
2018-07-13T15:04:07.698Z,24.42
2018-07-13T15:06:36.004Z,24.63
2018-07-13T15:09:05.054Z,24.86
2018-07-13T15:11:33.539Z,24.33
2018-07-13T15:14:01.637Z,24.18
2018-07-13T15:16:29.812Z,23.87
2018-07-13T15:18:58.178Z,23.96
2018-07-13T15:21:26.862Z,24.34
2018-07-13T15:23:55.061Z,24.48
2018-07-13T15:26:24.176Z,24.50
2018-07-13T15:28:54.795Z,24.24
2018-07-13T15:31:23.475Z,23.91
2018-07-13T15:33:51.863Z,23.47
2018-07-13T15:36:20.348Z,23.31
2018-07-13T15:38:48.511Z,23.31
2018-07-13T15:41:17.393Z,23.23
2018-07-13T15:43:45.626Z,23.15
2018-07-13T15:46:13.857Z,23.03
2018-07-13T15:48:41.952Z,23.12
2018-07-13T15:51:10.173Z,23.17
2018-07-13T15:53:38.369Z,23.09
2018-07-13T15:56:06.676Z,23.14
2018-07-13T15:58:34.845Z,23.16
2018-07-13T16:01:03.236Z,23.17
2018-07-13T16:03:31.338Z,23.02
2018-07-13T16:05:59.420Z,22.64
2018-07-13T16:08:27.504Z,22.39
2018-07-13T16:10:55.715Z,22.05
2018-07-13T16:13:23.866Z,21.79
2018-07-13T16:15:51.997Z,21.60
2018-07-13T16:18:20.255Z,21.51
2018-07-13T16:20:48.523Z,21.46
2018-07-13T16:23:16.907Z,21.44
2018-07-13T16:25:45.089Z,21.19
2018-07-13T16:28:13.230Z,20.98
2018-07-13T16:30:41.321Z,21.08
2018-07-13T16:33:10.747Z,21.18
2018-07-13T16:35:39.187Z,20.96
2018-07-13T16:38:07.343Z,20.81
2018-07-13T16:40:35.467Z,20.86
2018-07-13T16:43:03.559Z,20.88
2018-07-13T16:45:31.700Z,20.84
2018-07-13T16:47:59.881Z,20.63
2018-07-13T16:50:28.300Z,20.51
2018-07-13T16:52:56.541Z,20.46
2018-07-13T16:55:24.669Z,20.36
2018-07-13T16:57:52.803Z,20.35
2018-07-13T17:00:20.885Z,20.38
2018-07-13T17:02:48.952Z,20.22
2018-07-13T17:05:17.216Z,20.15
2018-07-13T17:07:45.257Z,20.16
2018-07-13T17:10:13.371Z,19.99
2018-07-13T17:12:41.556Z,19.93
2018-07-13T17:15:09.713Z,19.82
2018-07-13T17:17:37.726Z,19.77
2018-07-13T17:20:06.076Z,19.76
2018-07-13T17:22:34.338Z,19.66
2018-07-13T17:25:02.475Z,19.32
2018-07-13T17:27:31.190Z,19.39
2018-07-13T17:29:59.413Z,19.27
2018-07-13T17:32:27.710Z,19.22
2018-07-13T17:34:56.050Z,19.19
2018-07-13T17:37:24.576Z,19.17
2018-07-13T17:39:52.864Z,19.21
2018-07-13T17:42:22.202Z,19.06
2018-07-13T17:44:50.860Z,18.97
2018-07-13T17:47:19.300Z,18.89
2018-07-13T17:49:48.055Z,18.75
2018-07-13T17:52:16.519Z,18.78
2018-07-13T17:54:44.901Z,18.73
2018-07-13T17:57:15.297Z,18.73
2018-07-13T17:59:43.710Z,18.68
2018-07-13T18:02:11.895Z,18.63
2018-07-13T18:04:40.384Z,18.54
2018-07-13T18:07:08.731Z,18.36
2018-07-13T18:09:36.997Z,18.32
2018-07-13T18:12:05.772Z,18.30
2018-07-13T18:14:34.480Z,18.31
2018-07-13T18:17:03.290Z,18.23
2018-07-13T18:19:31.843Z,18.25
2018-07-13T18:22:00.206Z,18.23
2018-07-13T18:24:28.575Z,18.23
2018-07-13T18:26:57.413Z,18.17
2018-07-13T18:29:27.270Z,18.12
2018-07-13T18:31:57.152Z,18.09
2018-07-13T18:34:26.419Z,18.10
2018-07-13T18:36:55.072Z,18.13
2018-07-13T18:39:23.514Z,18.08
2018-07-13T18:41:51.870Z,18.07
2018-07-13T18:44:20.348Z,18.07
2018-07-13T18:46:48.653Z,18.03
2018-07-13T18:49:17.093Z,18.00
2018-07-13T18:51:45.322Z,18.03
2018-07-13T18:54:13.553Z,17.97
2018-07-13T18:56:42.033Z,17.98
2018-07-13T18:59:11.618Z,17.96
2018-07-13T19:01:39.889Z,17.92
2018-07-13T19:04:08.567Z,17.84
2018-07-13T19:06:37.780Z,17.74
2018-07-13T19:09:07.692Z,17.80
2018-07-13T19:11:36.254Z,17.80
2018-07-13T19:14:04.877Z,17.81
2018-07-13T19:16:33.154Z,17.80
2018-07-13T19:19:01.495Z,17.83
2018-07-13T19:21:29.742Z,17.81
2018-07-13T19:23:58.107Z,17.77
2018-07-13T19:26:26.636Z,17.71
2018-07-13T19:28:54.999Z,17.72
2018-07-13T19:31:23.415Z,17.70
2018-07-13T19:33:51.941Z,17.69
2018-07-13T19:36:20.322Z,17.65
2018-07-13T19:38:48.804Z,17.57
2018-07-13T19:41:17.111Z,17.54
2018-07-13T19:43:45.341Z,17.54
2018-07-13T19:46:13.510Z,17.53
2018-07-13T19:48:41.706Z,17.52
2018-07-13T19:51:09.899Z,17.51
2018-07-13T19:53:38.100Z,17.52
2018-07-13T19:56:06.796Z,17.50
2018-07-13T19:58:35.026Z,17.46
2018-07-13T20:01:03.489Z,17.43
2018-07-13T20:03:32.153Z,17.38
2018-07-13T20:06:01.217Z,17.31
2018-07-13T20:08:30.017Z,17.28
2018-07-13T20:10:58.255Z,17.27
2018-07-13T20:13:26.781Z,17.28
2018-07-13T20:15:54.916Z,17.28
2018-07-13T20:18:23.176Z,17.25
2018-07-13T20:20:51.251Z,17.20
2018-07-13T20:23:19.289Z,17.18
2018-07-13T20:25:47.381Z,17.12
2018-07-13T20:28:15.535Z,17.13
2018-07-13T20:30:43.676Z,17.13
2018-07-13T20:33:11.715Z,17.11
2018-07-13T20:35:40.132Z,17.10
2018-07-13T20:38:08.296Z,17.09
2018-07-13T20:40:36.453Z,17.07
2018-07-13T20:43:04.894Z,17.02
2018-07-13T20:45:33.060Z,17.02
2018-07-13T20:48:01.211Z,17.02
2018-07-13T20:50:29.411Z,16.94
2018-07-13T20:52:57.609Z,16.91
2018-07-13T20:55:25.825Z,16.88
2018-07-13T20:57:54.045Z,16.84
2018-07-13T21:00:22.283Z,16.79
2018-07-13T21:02:50.444Z,16.76
2018-07-13T21:05:18.801Z,16.72
2018-07-13T21:07:46.954Z,16.70
2018-07-13T21:10:15.148Z,16.69
2018-07-13T21:12:43.513Z,16.67
2018-07-13T21:15:11.942Z,16.60
2018-07-13T21:17:40.272Z,16.62
2018-07-13T21:20:08.510Z,16.57
2018-07-13T21:22:37.013Z,16.54
2018-07-13T21:25:05.135Z,16.52
2018-07-13T21:27:33.422Z,16.55
2018-07-13T21:30:01.492Z,16.53
2018-07-13T21:32:29.577Z,16.54
2018-07-13T21:34:57.810Z,16.54
2018-07-13T21:37:25.934Z,16.61
2018-07-13T21:39:54.037Z,16.62
2018-07-13T21:42:22.210Z,16.66
2018-07-13T21:44:50.255Z,16.66
2018-07-13T21:47:18.297Z,16.67
2018-07-13T21:49:46.377Z,16.72
2018-07-13T21:52:14.850Z,16.74
2018-07-13T21:54:42.926Z,16.79
2018-07-13T21:57:11.074Z,16.79
2018-07-13T21:59:39.146Z,16.77
2018-07-13T22:02:07.280Z,16.77
2018-07-13T22:04:35.447Z,16.80
2018-07-13T22:07:03.577Z,16.80
2018-07-13T22:09:31.652Z,16.84
2018-07-13T22:11:59.875Z,16.84
2018-07-13T22:14:27.905Z,16.78
2018-07-13T22:16:56.045Z,16.76
2018-07-13T22:19:24.193Z,16.72
2018-07-13T22:21:52.331Z,16.68
2018-07-13T22:24:20.460Z,16.63
2018-07-13T22:26:48.516Z,16.56
2018-07-13T22:29:16.630Z,16.48
2018-07-13T22:31:44.668Z,16.47
2018-07-13T22:34:12.737Z,16.40
2018-07-13T22:36:40.741Z,16.29
2018-07-13T22:39:08.920Z,16.28
2018-07-13T22:41:37.035Z,16.27
2018-07-13T22:44:05.249Z,16.20
2018-07-13T22:46:33.368Z,16.14
2018-07-13T22:49:01.472Z,16.12
2018-07-13T22:51:29.531Z,16.08
2018-07-13T22:53:57.733Z,16.05
2018-07-13T22:56:26.081Z,16.09
2018-07-13T22:58:54.294Z,16.14
2018-07-13T23:01:22.458Z,16.20
2018-07-13T23:03:50.579Z,16.25
2018-07-13T23:06:18.657Z,16.26
2018-07-13T23:08:46.796Z,16.29
2018-07-13T23:11:14.911Z,16.32
2018-07-13T23:13:43.155Z,16.36
2018-07-13T23:16:11.171Z,16.43
2018-07-13T23:18:39.149Z,16.40
2018-07-13T23:21:07.133Z,16.42
2018-07-13T23:23:35.149Z,16.44
2018-07-13T23:26:03.239Z,16.43
2018-07-13T23:28:31.280Z,16.46
2018-07-13T23:30:59.396Z,16.42
2018-07-13T23:33:27.499Z,16.44
2018-07-13T23:35:55.481Z,16.47
2018-07-13T23:38:23.589Z,16.44
2018-07-13T23:40:51.645Z,16.44
2018-07-13T23:43:19.678Z,16.39
2018-07-13T23:45:47.692Z,16.35
2018-07-13T23:48:15.810Z,16.37
2018-07-13T23:50:43.845Z,16.30
2018-07-13T23:53:11.945Z,16.31
2018-07-13T23:55:40.085Z,16.32
2018-07-13T23:58:08.071Z,16.32
